createdAt,value
2022-11-27T00:00:49.403Z,100877.09
2022-11-27T00:03:18.716Z,100872.78
2022-11-27T00:05:53.529Z,100880.00
2022-11-27T00:08:21.388Z,100868.84
2022-11-27T00:10:49.214Z,100871.75
2022-11-27T00:13:17.264Z,100871.44
2022-11-27T00:15:45.093Z,100867.78
2022-11-27T00:18:13.188Z,100871.88
2022-11-27T00:20:42.305Z,100871.13
2022-11-27T00:23:10.165Z,100874.66
2022-11-27T00:25:37.984Z,100869.06
2022-11-27T00:28:06.108Z,100865.38
2022-11-27T00:30:33.888Z,100859.94
2022-11-27T00:33:01.647Z,100865.00
2022-11-27T00:35:29.525Z,100874.66
2022-11-27T00:38:01.819Z,100867.41
2022-11-27T00:40:29.593Z,100873.44
2022-11-27T00:42:57.569Z,100873.66
2022-11-27T00:45:25.597Z,100871.81
2022-11-27T00:47:53.494Z,100872.69
2022-11-27T00:50:21.672Z,100885.09
2022-11-27T00:52:49.681Z,100883.59
2022-11-27T00:55:19.076Z,100889.13
2022-11-27T00:57:46.903Z,100878.25
2022-11-27T01:00:16.094Z,100886.25
2022-11-27T01:02:44.737Z,100880.22
2022-11-27T01:05:12.675Z,100874.19
2022-11-27T01:07:40.598Z,100887.75
2022-11-27T01:10:09.898Z,100878.59
2022-11-27T01:12:39.108Z,100879.34
2022-11-27T01:15:07.887Z,100883.00
2022-11-27T01:17:35.702Z,100884.94
2022-11-27T01:20:03.572Z,100885.78
2022-11-27T01:22:31.422Z,100886.47
2022-11-27T01:24:59.202Z,100884.75
2022-11-27T01:27:27.070Z,100876.53
2022-11-27T01:29:56.293Z,100877.41
2022-11-27T01:32:24.095Z,100870.06
2022-11-27T01:34:54.315Z,100875.78
2022-11-27T01:37:22.243Z,100878.06
2022-11-27T01:39:50.080Z,100873.63
2022-11-27T01:42:17.925Z,100871.47
2022-11-27T01:44:54.766Z,100879.78
2022-11-27T01:47:34.966Z,100883.56
2022-11-27T01:50:12.331Z,100866.25
2022-11-27T01:52:44.546Z,100884.22
2022-11-27T01:55:18.878Z,100881.72
2022-11-27T01:57:49.487Z,100877.31
2022-11-27T02:00:19.191Z,100875.47
2022-11-27T02:02:48.995Z,100877.03
2022-11-27T02:05:19.514Z,100876.28
2022-11-27T02:07:48.772Z,100880.25
2022-11-27T02:10:17.798Z,100875.97
2022-11-27T02:12:53.444Z,100873.16
2022-11-27T02:15:27.586Z,100883.28
2022-11-27T02:18:07.427Z,100880.72
2022-11-27T02:20:45.284Z,100885.78
2022-11-27T02:23:40.438Z,100881.56
2022-11-27T02:26:26.470Z,100893.31
2022-11-27T02:29:05.154Z,100890.19
2022-11-27T02:31:39.727Z,100895.16
2022-11-27T02:34:16.047Z,100884.38
2022-11-27T02:36:51.262Z,100880.06
2022-11-27T02:39:24.046Z,100887.38
2022-11-27T02:41:57.895Z,100892.47
2022-11-27T02:44:30.788Z,100892.47
2022-11-27T02:46:58.802Z,100897.97
2022-11-27T02:49:27.564Z,100897.53
2022-11-27T02:52:00.132Z,100885.59
2022-11-27T02:54:31.210Z,100899.03
2022-11-27T02:57:03.645Z,100905.72
2022-11-27T02:59:36.019Z,100901.44
2022-11-27T03:02:08.612Z,100910.81
2022-11-27T03:04:40.400Z,100906.28
2022-11-27T03:07:15.636Z,100910.06
2022-11-27T03:09:47.235Z,100909.88
2022-11-27T03:12:17.914Z,100911.19
2022-11-27T03:14:48.561Z,100921.28
2022-11-27T03:17:30.331Z,100906.22
2022-11-27T03:20:02.212Z,100917.19
2022-11-27T03:22:33.068Z,100921.28
2022-11-27T03:25:00.994Z,100917.00
2022-11-27T03:27:33.569Z,100906.31
2022-11-27T03:30:06.922Z,100911.94
2022-11-27T03:32:34.993Z,100918.41
2022-11-27T03:35:03.122Z,100920.44
2022-11-27T03:37:31.011Z,100915.91
2022-11-27T03:39:58.844Z,100910.94
2022-11-27T03:42:32.007Z,100918.06
2022-11-27T03:45:09.174Z,100913.53
2022-11-27T03:47:55.563Z,100921.09
2022-11-27T03:50:34.336Z,100907.91
2022-11-27T03:53:11.801Z,100903.81
2022-11-27T03:55:49.404Z,100918.06
2022-11-27T03:58:24.441Z,100916.88
2022-11-27T04:00:54.340Z,100887.91
2022-11-27T04:03:25.135Z,100912.88
2022-11-27T04:05:53.435Z,100888.78
2022-11-27T04:08:21.607Z,100912.91
2022-11-27T04:10:49.670Z,100914.41
2022-11-27T04:13:17.671Z,100917.00
2022-11-27T04:15:45.481Z,100914.63
2022-11-27T04:18:14.784Z,100921.94
2022-11-27T04:20:42.713Z,100907.72
2022-11-27T04:23:11.227Z,100914.50
2022-11-27T04:25:39.059Z,100904.91
2022-11-27T04:28:06.930Z,100915.50
2022-11-27T04:30:35.142Z,100912.16
2022-11-27T04:33:03.026Z,100909.22
2022-11-27T04:35:32.375Z,100905.78
2022-11-27T04:38:00.254Z,100905.03
2022-11-27T04:40:28.438Z,100903.19
2022-11-27T04:42:56.230Z,100902.78
2022-11-27T04:45:24.050Z,100903.53
2022-11-27T04:47:51.873Z,100902.22
2022-11-27T04:50:19.902Z,100884.66
2022-11-27T04:52:49.052Z,100897.38
2022-11-27T04:55:17.207Z,100888.31
2022-11-27T04:57:44.998Z,100895.00
2022-11-27T05:00:13.827Z,100879.06
2022-11-27T05:02:41.915Z,100884.47
2022-11-27T05:05:10.344Z,100886.81
2022-11-27T05:07:38.555Z,100891.78
2022-11-27T05:10:09.536Z,100888.44
2022-11-27T05:12:37.438Z,100882.97
2022-11-27T05:15:06.025Z,100879.72
2022-11-27T05:17:33.860Z,100897.91
2022-11-27T05:20:01.750Z,100889.53
2022-11-27T05:22:29.651Z,100890.06
2022-11-27T05:24:57.526Z,100888.31
2022-11-27T05:27:26.739Z,100893.28
2022-11-27T05:29:54.567Z,100889.72
2022-11-27T05:32:22.401Z,100887.78
2022-11-27T05:34:50.458Z,100886.59
2022-11-27T05:37:19.932Z,100885.63
2022-11-27T05:39:48.134Z,100866.00
2022-11-27T05:42:15.982Z,100884.44
2022-11-27T05:44:45.254Z,100886.34
2022-11-27T05:47:13.054Z,100873.19
2022-11-27T05:49:40.826Z,100882.00
2022-11-27T05:52:08.620Z,100885.44
2022-11-27T05:54:36.548Z,100890.41
2022-11-27T05:57:04.419Z,100897.22
2022-11-27T05:59:32.270Z,100904.25
2022-11-27T06:02:01.562Z,100899.28
2022-11-27T06:04:29.390Z,100901.91
2022-11-27T06:06:57.180Z,100905.41
2022-11-27T06:09:25.326Z,100903.78
2022-11-27T06:11:53.135Z,100900.19
2022-11-27T06:14:21.075Z,100896.84
2022-11-27T06:16:48.961Z,100904.63
2022-11-27T06:19:18.160Z,100888.28
2022-11-27T06:21:46.522Z,100884.66
2022-11-27T06:24:14.486Z,100879.31
2022-11-27T06:26:42.376Z,100882.00
2022-11-27T06:29:11.100Z,100884.47
2022-11-27T06:31:39.110Z,100885.47
2022-11-27T06:34:07.714Z,100890.41
2022-11-27T06:36:39.980Z,100885.47
2022-11-27T06:39:09.318Z,100894.53
2022-11-27T06:41:37.504Z,100865.66
2022-11-27T06:44:05.687Z,100895.97
2022-11-27T06:46:33.547Z,100892.94
2022-11-27T06:49:01.969Z,100867.75
2022-11-27T06:51:31.845Z,100905.78
2022-11-27T06:54:02.427Z,100904.84
2022-11-27T06:56:31.889Z,100905.97
2022-11-27T06:59:01.999Z,100904.88
2022-11-27T07:01:32.054Z,100906.34
2022-11-27T07:04:00.391Z,100911.28
2022-11-27T07:06:29.130Z,100900.97
2022-11-27T07:08:57.183Z,100900.72
2022-11-27T07:11:28.252Z,100908.88
2022-11-27T07:13:57.998Z,100915.28
2022-11-27T07:16:26.676Z,100917.50
2022-11-27T07:18:56.394Z,100915.50
2022-11-27T07:21:24.584Z,100917.81
2022-11-27T07:23:52.588Z,100912.69
2022-11-27T07:26:22.730Z,100915.75
2022-11-27T07:28:52.610Z,100908.59
2022-11-27T07:31:22.882Z,100915.75
2022-11-27T07:33:52.431Z,100909.22
2022-11-27T07:36:22.224Z,100916.00
2022-11-27T07:38:50.433Z,100924.00
2022-11-27T07:41:18.840Z,100913.69
2022-11-27T07:43:47.329Z,100923.16
2022-11-27T07:46:19.566Z,100914.59
2022-11-27T07:48:47.796Z,100919.13
2022-11-27T07:51:18.003Z,100915.59
2022-11-27T07:53:46.229Z,100922.50
2022-11-27T07:56:16.584Z,100923.22
2022-11-27T07:58:44.646Z,100925.63
2022-11-27T08:01:17.357Z,100922.03
2022-11-27T08:03:47.184Z,100917.41
2022-11-27T08:06:17.104Z,100921.81
2022-11-27T08:08:45.456Z,100925.38
2022-11-27T08:11:18.288Z,100919.75
2022-11-27T08:13:46.187Z,100913.16
2022-11-27T08:16:14.047Z,100915.47
2022-11-27T08:18:41.967Z,100912.00
2022-11-27T08:21:11.265Z,100913.72
2022-11-27T08:23:41.435Z,100916.31
2022-11-27T08:26:10.916Z,100894.97
2022-11-27T08:28:39.727Z,100916.06
2022-11-27T08:31:09.320Z,100916.28
2022-11-27T08:33:37.333Z,100918.97
2022-11-27T08:36:08.994Z,100915.28
2022-11-27T08:38:40.227Z,100917.88
2022-11-27T08:41:09.512Z,100924.63
2022-11-27T08:43:37.603Z,100925.78
2022-11-27T08:46:06.284Z,100929.66
2022-11-27T08:48:34.733Z,100930.25
2022-11-27T08:51:06.593Z,100929.06
2022-11-27T08:53:34.545Z,100918.81
2022-11-27T08:56:08.848Z,100923.81
2022-11-27T08:58:40.966Z,100920.78
2022-11-27T09:01:13.624Z,100922.06
2022-11-27T09:03:41.686Z,100921.44
2022-11-27T09:06:11.634Z,100914.19
2022-11-27T09:08:40.006Z,100905.00
2022-11-27T09:11:10.448Z,100913.69
2022-11-27T09:13:40.360Z,100912.06
2022-11-27T09:16:11.195Z,100910.34
2022-11-27T09:18:39.525Z,100909.38
2022-11-27T09:21:09.910Z,100897.66
2022-11-27T09:23:38.540Z,100897.19
2022-11-27T09:26:11.562Z,100891.44
2022-11-27T09:28:41.138Z,100888.31
2022-11-27T09:31:13.356Z,100892.63
2022-11-27T09:33:42.595Z,100884.41
2022-11-27T09:36:11.899Z,100892.06
2022-11-27T09:38:40.158Z,100859.16
2022-11-27T09:41:36.494Z,100886.69
2022-11-27T09:44:13.009Z,100875.25
2022-11-27T09:46:43.603Z,100882.13
2022-11-27T09:49:18.418Z,100877.16
2022-11-27T09:51:53.533Z,100881.38
2022-11-27T09:54:26.111Z,100874.13
2022-11-27T09:56:56.998Z,100879.28
2022-11-27T09:59:30.299Z,100868.69
2022-11-27T10:01:58.340Z,100861.13
2022-11-27T10:04:26.315Z,100864.94
2022-11-27T10:07:10.354Z,100860.16
2022-11-27T10:09:53.844Z,100852.81
2022-11-27T10:12:33.303Z,100852.13
2022-11-27T10:15:08.465Z,100849.84
2022-11-27T10:17:42.963Z,100844.13
2022-11-27T10:20:20.485Z,100843.41
2022-11-27T10:22:56.646Z,100840.25
2022-11-27T10:25:31.053Z,100838.72
2022-11-27T10:28:13.166Z,100836.44
2022-11-27T10:30:48.607Z,100830.78
2022-11-27T10:33:21.312Z,100826.69
2022-11-27T10:35:50.676Z,100824.50
2022-11-27T10:38:22.820Z,100818.81
2022-11-27T10:40:55.808Z,100794.94
2022-11-27T10:43:26.443Z,100820.91
2022-11-27T10:45:58.550Z,100807.72
2022-11-27T10:48:27.802Z,100812.69
2022-11-27T10:50:55.615Z,100806.84
2022-11-27T10:53:28.200Z,100810.28
2022-11-27T10:56:06.053Z,100805.50
2022-11-27T10:58:41.056Z,100784.56
2022-11-27T11:01:10.511Z,100794.47
2022-11-27T11:03:38.891Z,100797.13
2022-11-27T11:06:23.187Z,100790.72
2022-11-27T11:09:02.348Z,100786.03
2022-11-27T11:11:30.242Z,100791.16
2022-11-27T11:13:59.402Z,100782.44
2022-11-27T11:16:34.864Z,100790.84
2022-11-27T11:19:03.765Z,100775.44
2022-11-27T11:21:34.921Z,100776.47
2022-11-27T11:24:05.256Z,100768.91
2022-11-27T11:26:37.067Z,100768.16
2022-11-27T11:29:26.573Z,100763.16
2022-11-27T11:31:56.203Z,100759.81
2022-11-27T11:34:26.923Z,100758.97
2022-11-27T11:36:57.579Z,100754.84
2022-11-27T11:39:28.181Z,100754.94
2022-11-27T11:41:56.105Z,100760.69
2022-11-27T11:44:38.891Z,100754.75
2022-11-27T11:47:07.377Z,100758.09
2022-11-27T11:49:36.971Z,100747.38
2022-11-27T11:52:21.876Z,100752.28
2022-11-27T11:55:01.407Z,100751.31
2022-11-27T11:58:10.108Z,100740.91
2022-11-27T12:01:11.419Z,100741.88
2022-11-27T12:03:51.750Z,100733.53
2022-11-27T12:06:48.756Z,100722.66
2022-11-27T12:09:28.901Z,100729.25
2022-11-27T12:12:02.277Z,100730.81
2022-11-27T12:14:42.908Z,100729.00
2022-11-27T12:17:27.972Z,100718.19
2022-11-27T12:20:18.294Z,100717.63
2022-11-27T12:23:31.062Z,100712.19
2022-11-27T12:26:08.146Z,100712.63
2022-11-27T12:28:48.453Z,100710.56
2022-11-27T12:31:27.446Z,100711.75
2022-11-27T12:34:03.963Z,100709.75
2022-11-27T12:36:46.112Z,100697.84
2022-11-27T12:39:25.486Z,100721.66
2022-11-27T12:42:03.977Z,100719.94
2022-11-27T12:44:51.049Z,100721.28
2022-11-27T12:47:25.992Z,100720.75
2022-11-27T12:49:58.280Z,100716.81
2022-11-27T12:52:32.358Z,100719.38
2022-11-27T12:55:05.842Z,100706.75
2022-11-27T12:57:40.426Z,100708.94
2022-11-27T13:00:17.531Z,100702.00
2022-11-27T13:02:50.824Z,100706.44
2022-11-27T13:05:23.936Z,100713.31
2022-11-27T13:07:55.641Z,100707.31
2022-11-27T13:10:29.438Z,100711.00
2022-11-27T13:13:05.797Z,100716.94
2022-11-27T13:15:39.199Z,100718.66
2022-11-27T13:18:17.094Z,100703.78
2022-11-27T13:20:52.332Z,100717.25
2022-11-27T13:23:21.147Z,100700.84
2022-11-27T13:25:54.007Z,100716.81
2022-11-27T13:28:29.610Z,100720.91
2022-11-27T13:31:00.999Z,100716.53
2022-11-27T13:33:37.620Z,100726.34
2022-11-27T13:36:18.178Z,100716.38
2022-11-27T13:38:46.610Z,100727.38
2022-11-27T13:41:22.064Z,100727.88
2022-11-27T13:43:50.535Z,100720.88
2022-11-27T13:46:22.059Z,100721.28
2022-11-27T13:48:53.355Z,100725.84
2022-11-27T13:51:28.580Z,100728.66
2022-11-27T13:54:08.077Z,100726.00
2022-11-27T13:56:35.902Z,100724.91
2022-11-27T13:59:14.745Z,100721.38
2022-11-27T14:01:54.628Z,100732.53
2022-11-27T14:04:22.505Z,100727.13
2022-11-27T14:06:57.304Z,100729.78
2022-11-27T14:09:35.971Z,100730.72
2022-11-27T14:12:16.723Z,100725.31
2022-11-27T14:14:46.374Z,100733.56
2022-11-27T14:17:27.384Z,100725.84
2022-11-27T14:20:06.834Z,100734.75
2022-11-27T14:23:07.511Z,100733.03
2022-11-27T14:25:36.209Z,100726.34
2022-11-27T14:28:13.075Z,100720.94
2022-11-27T14:30:42.271Z,100729.25
2022-11-27T14:33:20.029Z,100734.75
2022-11-27T14:35:51.920Z,100732.00
2022-11-27T14:38:21.149Z,100725.72
2022-11-27T14:40:50.495Z,100733.53
2022-11-27T14:43:20.431Z,100725.41
2022-11-27T14:45:50.775Z,100736.56
2022-11-27T14:48:24.652Z,100718.84
2022-11-27T14:50:54.838Z,100702.84
2022-11-27T14:53:26.021Z,100733.81
2022-11-27T14:55:55.786Z,100733.16
2022-11-27T14:58:26.859Z,100728.50
2022-11-27T15:01:01.249Z,100725.44
2022-11-27T15:03:29.878Z,100714.97
2022-11-27T15:06:00.079Z,100725.66
2022-11-27T15:08:32.822Z,100725.25
2022-11-27T15:11:02.626Z,100718.28
2022-11-27T15:13:32.277Z,100704.03
2022-11-27T15:16:04.950Z,100719.56
2022-11-27T15:18:37.095Z,100714.16
2022-11-27T15:21:11.508Z,100717.41
2022-11-27T15:23:45.986Z,100709.56
2022-11-27T15:26:19.950Z,100719.44
2022-11-27T15:28:53.256Z,100692.97
2022-11-27T15:31:27.429Z,100710.72
2022-11-27T15:33:57.363Z,100715.50
2022-11-27T15:36:25.973Z,100707.00
2022-11-27T15:39:06.496Z,100695.66
2022-11-27T15:41:37.369Z,100700.59
2022-11-27T15:44:10.099Z,100704.31
2022-11-27T15:46:37.995Z,100702.59
2022-11-27T15:49:09.537Z,100705.63
2022-11-27T15:51:37.400Z,100708.72
2022-11-27T15:54:06.691Z,100710.03
2022-11-27T15:56:34.609Z,100705.97
2022-11-27T15:59:02.404Z,100702.56
2022-11-27T16:01:30.366Z,100703.22
2022-11-27T16:03:58.730Z,100707.97
2022-11-27T16:06:26.802Z,100706.06
2022-11-27T16:08:56.151Z,100705.00
2022-11-27T16:11:26.653Z,100714.25
2022-11-27T16:13:54.543Z,100709.28
2022-11-27T16:16:23.361Z,100710.06
2022-11-27T16:18:51.327Z,100700.69
2022-11-27T16:21:19.645Z,100699.56
2022-11-27T16:23:47.443Z,100698.91
2022-11-27T16:26:15.715Z,100692.13
2022-11-27T16:28:45.053Z,100695.56
2022-11-27T16:31:14.968Z,100695.16
2022-11-27T16:33:43.446Z,100706.03
2022-11-27T16:36:14.455Z,100708.28
2022-11-27T16:38:43.340Z,100698.38
2022-11-27T16:41:13.917Z,100697.72
2022-11-27T16:43:45.627Z,100691.16
2022-11-27T16:46:16.126Z,100692.13
2022-11-27T16:48:45.009Z,100671.66
2022-11-27T16:51:15.965Z,100668.03
2022-11-27T16:53:45.750Z,100688.47
2022-11-27T16:56:17.368Z,100683.31
2022-11-27T16:58:48.204Z,100688.47
2022-11-27T17:01:19.878Z,100680.28
2022-11-27T17:03:48.210Z,100674.91
2022-11-27T17:06:17.850Z,100687.59
2022-11-27T17:08:45.743Z,100684.06
2022-11-27T17:11:15.950Z,100689.22
2022-11-27T17:13:44.263Z,100685.22
2022-11-27T17:16:13.777Z,100683.50
2022-11-27T17:18:45.566Z,100674.34
2022-11-27T17:21:18.181Z,100671.88
2022-11-27T17:23:47.011Z,100672.63
2022-11-27T17:26:16.864Z,100667.84
2022-11-27T17:28:45.267Z,100660.22
2022-11-27T17:31:17.443Z,100666.13
2022-11-27T17:33:46.017Z,100662.47
2022-11-27T17:36:14.651Z,100671.44
2022-11-27T17:38:43.050Z,100675.84
2022-11-27T17:41:13.732Z,100637.56
2022-11-27T17:43:42.820Z,100672.81
2022-11-27T17:46:12.196Z,100660.00
2022-11-27T17:48:42.307Z,100671.63
2022-11-27T17:51:11.056Z,100660.63
2022-11-27T17:53:39.212Z,100671.78
2022-11-27T17:56:10.934Z,100676.56
2022-11-27T17:58:39.987Z,100671.88
2022-11-27T18:01:15.891Z,100667.44
2022-11-27T18:03:47.135Z,100663.00
2022-11-27T18:06:17.440Z,100667.13
2022-11-27T18:08:46.874Z,100666.84
2022-11-27T18:11:18.174Z,100667.25
2022-11-27T18:13:46.815Z,100672.50
2022-11-27T18:16:16.614Z,100645.38
2022-11-27T18:18:45.851Z,100667.25
2022-11-27T18:21:18.346Z,100674.78
2022-11-27T18:24:21.532Z,100667.44
2022-11-27T18:29:23.914Z,100663.22
2022-11-27T18:31:53.254Z,100668.84
2022-11-27T18:34:22.511Z,100666.38
2022-11-27T18:36:50.471Z,100659.78
2022-11-27T18:39:18.559Z,100662.47
2022-11-27T18:41:46.369Z,100652.66
2022-11-27T18:44:14.236Z,100650.81
2022-11-27T18:46:42.114Z,100649.91
2022-11-27T18:49:09.969Z,100657.44
2022-11-27T18:51:39.563Z,100652.28
2022-11-27T18:54:08.636Z,100653.16
2022-11-27T18:56:37.412Z,100648.97
2022-11-27T18:59:06.969Z,100655.84
2022-11-27T19:01:41.915Z,100663.47
2022-11-27T19:04:11.493Z,100655.72
2022-11-27T19:06:42.536Z,100662.22
2022-11-27T19:09:12.107Z,100658.50
2022-11-27T19:11:40.575Z,100654.28
2022-11-27T19:14:09.846Z,100646.75
2022-11-27T19:16:43.735Z,100653.34
2022-11-27T19:19:52.169Z,100644.50
2022-11-27T19:22:03.411Z,100647.09
2022-11-27T19:24:31.498Z,100642.34
2022-11-27T19:26:59.440Z,100647.09
2022-11-27T19:29:27.402Z,100653.88
2022-11-27T19:31:58.127Z,100646.66
2022-11-27T19:34:26.157Z,100653.44
2022-11-27T19:36:54.360Z,100644.47
2022-11-27T19:39:23.860Z,100647.16
2022-11-27T19:41:52.251Z,100644.06
2022-11-27T19:44:20.446Z,100635.72
2022-11-27T19:46:49.111Z,100643.91
2022-11-27T19:49:18.733Z,100640.28
2022-11-27T19:51:47.740Z,100645.13
2022-11-27T19:54:19.142Z,100645.03
2022-11-27T19:56:48.402Z,100637.38
2022-11-27T19:59:17.636Z,100627.88
2022-11-27T20:01:48.047Z,100625.75
2022-11-27T20:04:16.264Z,100621.34
2022-11-27T20:06:45.281Z,100622.66
2022-11-27T20:09:15.139Z,100613.22
2022-11-27T20:11:43.902Z,100616.16
2022-11-27T20:14:14.263Z,100622.41
2022-11-27T20:16:42.214Z,100623.75
2022-11-27T20:19:10.087Z,100620.31
2022-11-27T20:21:40.036Z,100620.31
2022-11-27T20:24:08.044Z,100621.19
2022-11-27T20:26:41.283Z,100616.88
2022-11-27T20:29:12.012Z,100625.47
2022-11-27T20:31:44.709Z,100619.84
2022-11-27T20:34:19.127Z,100628.25
2022-11-27T20:36:48.853Z,100618.53
2022-11-27T20:39:21.261Z,100628.66
2022-11-27T20:41:52.163Z,100626.28
2022-11-27T20:44:22.191Z,100625.13
2022-11-27T20:46:52.226Z,100627.25
2022-11-27T20:49:20.764Z,100629.31
2022-11-27T20:51:50.727Z,100628.97
2022-11-27T20:54:23.126Z,100629.31
2022-11-27T20:56:51.501Z,100631.41
2022-11-27T20:59:20.017Z,100636.75
2022-11-27T21:01:48.591Z,100630.31
2022-11-27T21:04:24.499Z,100627.53
2022-11-27T21:06:54.017Z,100631.69
2022-11-27T21:09:22.267Z,100622.63
2022-11-27T21:11:50.772Z,100623.88
2022-11-27T21:14:21.031Z,100613.53
2022-11-27T21:16:51.238Z,100608.38
2022-11-27T21:19:22.706Z,100622.63
2022-11-27T21:21:51.479Z,100610.34
2022-11-27T21:24:20.956Z,100613.44
2022-11-27T21:26:49.781Z,100613.50
2022-11-27T21:29:18.168Z,100614.09
2022-11-27T21:31:47.400Z,100609.06
2022-11-27T21:34:16.781Z,100614.22
2022-11-27T21:36:46.634Z,100610.03
2022-11-27T21:39:20.464Z,100603.34
2022-11-27T21:41:49.369Z,100603.41
2022-11-27T21:44:19.770Z,100610.25
2022-11-27T21:46:48.404Z,100601.69
2022-11-27T21:49:19.684Z,100592.88
2022-11-27T21:51:52.192Z,100592.03
2022-11-27T21:54:23.459Z,100590.06
2022-11-27T21:56:52.679Z,100591.03
2022-11-27T21:59:20.937Z,100576.16
2022-11-27T22:01:48.963Z,100574.63
2022-11-27T22:04:17.549Z,100569.75
2022-11-27T22:06:45.715Z,100561.44
2022-11-27T22:09:15.964Z,100554.81
2022-11-27T22:11:45.495Z,100552.13
2022-11-27T22:14:15.046Z,100546.97
2022-11-27T22:16:46.210Z,100556.03
2022-11-27T22:19:16.252Z,100548.50
2022-11-27T22:21:45.021Z,100549.44
2022-11-27T22:24:19.273Z,100545.25
2022-11-27T22:26:51.596Z,100545.03
2022-11-27T22:29:20.476Z,100524.66
2022-11-27T22:31:48.588Z,100511.31
2022-11-27T22:34:17.061Z,100535.72
2022-11-27T22:36:46.022Z,100545.81
2022-11-27T22:39:16.101Z,100536.97
2022-11-27T22:41:45.332Z,100534.38
2022-11-27T22:44:16.925Z,100536.31
2022-11-27T22:46:45.328Z,100524.66
2022-11-27T22:49:15.978Z,100522.94
2022-11-27T22:51:45.018Z,100523.16
2022-11-27T22:54:16.953Z,100526.78
2022-11-27T22:56:46.501Z,100528.50
2022-11-27T22:59:34.489Z,100525.91
2022-11-27T23:02:06.812Z,100526.00
2022-11-27T23:04:36.900Z,100532.00
2022-11-27T23:07:05.714Z,100515.97
2022-11-27T23:09:35.400Z,100528.31
2022-11-27T23:12:03.661Z,100534.03
2022-11-27T23:14:31.466Z,100533.25
2022-11-27T23:16:59.986Z,100535.13
2022-11-27T23:19:27.919Z,100531.69
2022-11-27T23:21:55.930Z,100532.19
2022-11-27T23:24:26.668Z,100522.00
2022-11-27T23:26:55.929Z,100528.06
2022-11-27T23:29:24.278Z,100539.41
2022-11-27T23:31:52.207Z,100519.50
2022-11-27T23:34:20.058Z,100521.13
2022-11-27T23:36:48.077Z,100529.81
2022-11-27T23:39:16.111Z,100527.03
2022-11-27T23:41:44.575Z,100528.41
2022-11-27T23:44:13.710Z,100531.34
2022-11-27T23:46:41.537Z,100516.00
2022-11-27T23:49:09.502Z,100523.13
2022-11-27T23:51:37.557Z,100525.16
2022-11-27T23:54:09.087Z,100527.91
2022-11-27T23:56:37.630Z,100527.91
2022-11-27T23:59:06.322Z,100527.81
